createdAt,value
2022-11-18T00:04:28.327Z,98601.13
2022-11-18T00:09:29.974Z,98599.34
2022-11-18T00:14:31.576Z,98600.97
2022-11-18T00:19:35.554Z,98586.97
2022-11-18T00:24:37.214Z,98585.78
2022-11-18T00:29:38.849Z,98588.50
2022-11-18T00:34:42.355Z,98588.00
2022-11-18T00:39:43.943Z,98596.72
2022-11-18T00:44:45.529Z,98600.03
2022-11-18T00:49:47.118Z,98592.50
2022-11-18T00:54:48.705Z,98605.78
2022-11-18T00:59:50.283Z,98606.84
2022-11-18T01:04:52.004Z,98611.66
2022-11-18T01:09:53.658Z,98614.47
2022-11-18T01:14:55.247Z,98614.47
2022-11-18T01:19:56.899Z,98603.56
2022-11-18T01:24:58.458Z,98599.22
2022-11-18T01:30:00.093Z,98597.72
2022-11-18T01:35:01.665Z,98590.91
2022-11-18T01:40:04.562Z,98586.59
2022-11-18T01:45:19.957Z,98595.25
2022-11-18T01:50:22.341Z,98590.59
2022-11-18T01:55:27.205Z,98596.59
2022-11-18T02:00:28.930Z,98595.91
2022-11-18T02:05:31.064Z,98598.56
2022-11-18T02:10:32.686Z,98594.59
2022-11-18T02:15:43.100Z,98586.97
2022-11-18T02:20:46.545Z,98590.78
2022-11-18T02:25:55.722Z,98588.13
2022-11-18T02:31:03.420Z,98583.63
2022-11-18T02:36:13.302Z,98575.78
2022-11-18T02:41:21.776Z,98578.97
2022-11-18T02:46:30.704Z,98578.97
2022-11-18T02:51:33.662Z,98588.97
2022-11-18T02:56:36.297Z,98583.63
2022-11-18T03:01:38.215Z,98581.28
2022-11-18T03:06:48.972Z,98591.28
2022-11-18T03:12:09.296Z,98581.63
2022-11-18T03:17:19.036Z,98581.47
2022-11-18T03:22:39.178Z,98576.13
2022-11-18T03:27:53.317Z,98574.44
2022-11-18T03:33:08.683Z,98589.66
2022-11-18T03:38:14.893Z,98595.25
2022-11-18T03:43:19.915Z,98599.19
2022-11-18T03:48:26.369Z,98604.00
2022-11-18T03:53:30.174Z,98604.69
2022-11-18T03:58:36.087Z,98600.22
2022-11-18T04:03:38.094Z,98616.38
2022-11-18T04:08:40.339Z,98618.88
2022-11-18T04:13:41.989Z,98614.72
2022-11-18T04:18:43.628Z,98622.84
2022-11-18T04:23:45.172Z,98628.38
2022-11-18T04:28:46.733Z,98631.19
2022-11-18T04:33:48.295Z,98627.56
2022-11-18T04:38:49.866Z,98632.84
2022-11-18T04:43:51.467Z,98626.06
2022-11-18T04:48:53.155Z,98634.53
2022-11-18T04:53:54.749Z,98639.34
2022-11-18T04:58:56.322Z,98639.50
2022-11-18T05:03:57.976Z,98638.84
2022-11-18T05:09:00.376Z,98644.31
2022-11-18T05:14:01.970Z,98649.47
2022-11-18T05:19:05.009Z,98650.47
2022-11-18T05:24:06.924Z,98649.00
2022-11-18T05:29:08.572Z,98655.47
2022-11-18T05:34:10.222Z,98663.44
2022-11-18T05:39:11.952Z,98662.25
2022-11-18T05:44:13.644Z,98667.41
2022-11-18T05:49:15.456Z,98670.66
2022-11-18T05:54:19.189Z,98677.22
2022-11-18T05:59:21.190Z,98695.28
2022-11-18T06:04:30.872Z,98700.28
2022-11-18T06:09:35.982Z,98707.50
2022-11-18T06:14:43.820Z,98713.88
2022-11-18T06:19:45.809Z,98729.03
2022-11-18T06:24:47.401Z,98731.56
2022-11-18T06:29:48.954Z,98731.69
2022-11-18T06:34:50.581Z,98747.00
2022-11-18T06:39:52.207Z,98745.50
2022-11-18T06:44:53.790Z,98749.88
2022-11-18T06:49:55.434Z,98759.22
2022-11-18T06:54:56.993Z,98766.09
2022-11-18T07:00:02.024Z,98777.34
2022-11-18T07:05:05.802Z,98790.81
2022-11-18T07:10:07.892Z,98782.56
2022-11-18T07:15:09.869Z,98796.38
2022-11-18T07:20:11.551Z,98804.34
2022-11-18T07:25:13.189Z,98801.03
2022-11-18T07:30:14.937Z,98803.22
2022-11-18T07:35:18.777Z,98806.38
2022-11-18T07:40:20.371Z,98814.16
2022-11-18T07:45:21.975Z,98814.84
2022-11-18T07:50:23.531Z,98823.03
2022-11-18T07:55:29.413Z,98827.06
2022-11-18T08:00:33.647Z,98829.31
2022-11-18T08:05:35.290Z,98831.91
2022-11-18T08:10:37.649Z,98834.69
2022-11-18T08:15:42.822Z,98841.75
2022-11-18T08:20:47.219Z,98841.75
2022-11-18T08:25:48.770Z,98839.63
2022-11-18T08:30:50.341Z,98840.44
2022-11-18T08:35:51.889Z,98848.25
2022-11-18T08:40:53.509Z,98855.53
2022-11-18T08:45:55.128Z,98861.63
2022-11-18T08:50:58.694Z,98864.41
2022-11-18T08:56:01.074Z,98868.78
2022-11-18T09:01:07.009Z,98882.19
2022-11-18T09:06:10.139Z,98885.59
2022-11-18T09:11:12.883Z,98892.81
2022-11-18T09:16:14.570Z,98902.16
2022-11-18T09:21:16.154Z,98899.13
2022-11-18T09:26:20.805Z,98910.81
2022-11-18T09:31:22.444Z,98921.69
2022-11-18T09:36:25.157Z,98921.53
2022-11-18T09:41:46.270Z,98915.31
2022-11-18T09:47:20.796Z,98931.13
2022-11-18T09:52:35.474Z,98941.56
2022-11-18T09:57:55.914Z,98955.19
2022-11-18T10:03:00.292Z,98966.53
2022-11-18T10:08:28.947Z,98967.94
2022-11-18T10:13:48.898Z,98982.16
2022-11-18T10:19:05.320Z,98983.81
2022-11-18T10:24:19.506Z,98978.28
2022-11-18T10:29:21.950Z,98976.31
2022-11-18T10:34:23.528Z,98981.34
2022-11-18T10:39:25.112Z,98987.72
2022-11-18T10:44:38.346Z,98992.19
2022-11-18T10:49:40.387Z,99001.56
2022-11-18T10:54:42.703Z,99011.13
2022-11-18T10:59:44.391Z,99007.94
2022-11-18T11:04:47.664Z,99026.03
2022-11-18T11:10:00.276Z,99031.47
2022-11-18T11:15:14.679Z,99034.53
2022-11-18T11:20:23.097Z,99036.75
2022-11-18T11:31:35.522Z,99051.53
2022-11-18T11:36:37.773Z,99061.84
2022-11-18T11:42:02.023Z,99082.69
2022-11-18T11:47:32.028Z,99070.59
2022-11-18T11:52:53.393Z,99062.81
2022-11-18T11:58:19.599Z,99083.59
2022-11-18T12:03:51.938Z,99087.34
2022-11-18T12:09:19.331Z,99086.03
2022-11-18T12:14:44.607Z,99088.19
2022-11-18T12:19:46.161Z,99087.44
2022-11-18T12:24:47.725Z,99084.66
2022-11-18T12:29:49.268Z,99097.41
2022-11-18T12:34:57.009Z,99096.69
2022-11-18T12:39:59.439Z,99104.59
2022-11-18T12:45:41.230Z,99113.97
2022-11-18T12:50:51.791Z,99116.44
2022-11-18T12:55:53.473Z,99116.59
2022-11-18T13:01:07.655Z,99124.31
2022-11-18T13:06:17.890Z,99124.59
2022-11-18T13:11:38.181Z,99142.88
2022-11-18T13:16:58.602Z,99140.22
2022-11-18T13:22:20.050Z,99145.34
2022-11-18T13:27:42.288Z,99153.34
2022-11-18T13:32:45.331Z,99156.22
2022-11-18T13:37:54.262Z,99170.28
2022-11-18T13:42:56.393Z,99180.69
2022-11-18T13:48:10.234Z,99189.00
2022-11-18T13:53:26.983Z,99196.75
2022-11-18T13:58:55.801Z,99212.75
2022-11-18T14:03:58.658Z,99215.72
2022-11-18T14:09:04.655Z,99225.94
2022-11-18T14:14:06.789Z,99222.81
2022-11-18T14:19:28.943Z,99239.97
2022-11-18T14:24:30.495Z,99240.94
2022-11-18T14:29:32.075Z,99241.31
2022-11-18T14:34:33.596Z,99247.44
2022-11-18T14:39:37.556Z,99255.72
2022-11-18T14:44:39.505Z,99251.94
2022-11-18T14:49:41.042Z,99252.97
2022-11-18T14:54:42.813Z,99265.56
2022-11-18T14:59:44.949Z,99286.31
2022-11-18T15:04:47.084Z,99288.34
2022-11-18T15:09:48.947Z,99287.31
2022-11-18T15:14:51.087Z,99288.16
2022-11-18T15:19:52.895Z,99308.16
2022-11-18T15:24:54.753Z,99314.78
2022-11-18T15:30:01.805Z,99295.59
2022-11-18T15:35:04.558Z,99311.03
2022-11-18T15:40:06.857Z,99309.59
2022-11-18T15:45:09.115Z,99326.06
2022-11-18T15:50:10.910Z,99334.22
2022-11-18T15:55:12.804Z,99339.00
2022-11-18T16:00:15.087Z,99361.25
2022-11-18T16:05:16.941Z,99359.66
2022-11-18T16:10:37.370Z,99377.31
2022-11-18T16:15:48.093Z,99374.66
2022-11-18T16:20:57.144Z,99387.16
2022-11-18T16:25:59.585Z,99389.06
2022-11-18T16:31:36.726Z,99400.59
2022-11-18T16:36:40.027Z,99416.53
2022-11-18T16:41:42.737Z,99419.78
2022-11-18T16:46:56.966Z,99436.22
2022-11-18T16:51:59.404Z,99435.97
2022-11-18T16:57:01.524Z,99425.97
2022-11-18T17:02:06.640Z,99432.09
2022-11-18T17:07:09.206Z,99440.53
2022-11-18T17:12:10.996Z,99444.25
2022-11-18T17:17:12.537Z,99446.88
2022-11-18T17:22:14.109Z,99448.75
2022-11-18T17:27:15.680Z,99461.63
2022-11-18T17:32:17.821Z,99489.78
2022-11-18T17:37:19.584Z,99474.19
2022-11-18T17:42:23.307Z,99494.22
2022-11-18T17:47:24.888Z,99509.44
2022-11-18T17:52:26.446Z,99497.44
2022-11-18T17:57:28.043Z,99508.13
2022-11-18T18:02:29.608Z,99515.25
2022-11-18T18:07:31.280Z,99513.47
2022-11-18T18:12:54.055Z,99523.34
2022-11-18T18:17:55.775Z,99524.47
2022-11-18T18:22:57.644Z,99524.81
2022-11-18T18:27:59.165Z,99512.03
2022-11-18T18:33:00.706Z,99522.91
2022-11-18T18:38:02.362Z,99536.44
2022-11-18T18:43:03.992Z,99548.97
2022-11-18T18:48:05.549Z,99538.84
2022-11-18T18:53:07.106Z,99537.00
2022-11-18T18:58:09.098Z,99552.91
2022-11-18T19:03:10.628Z,99559.56
2022-11-18T19:08:12.236Z,99570.91
2022-11-18T19:13:14.615Z,99563.81
2022-11-18T19:18:16.218Z,99562.66
2022-11-18T19:23:18.089Z,99584.63
2022-11-18T19:28:19.631Z,99577.13
2022-11-18T19:33:21.171Z,99563.94
2022-11-18T19:38:22.736Z,99571.84
2022-11-18T19:43:27.088Z,99580.25
2022-11-18T19:48:28.731Z,99587.84
2022-11-18T19:53:32.888Z,99593.66
2022-11-18T19:58:36.417Z,99594.63
2022-11-18T20:03:38.013Z,99603.09
2022-11-18T20:08:40.598Z,99611.63
2022-11-18T20:13:43.451Z,99618.06
2022-11-18T20:18:47.747Z,99606.91
2022-11-18T20:23:55.161Z,99606.44
2022-11-18T20:28:57.836Z,99617.09
2022-11-18T20:33:59.945Z,99628.63
2022-11-18T20:39:07.592Z,99630.38
2022-11-18T20:44:09.223Z,99635.84
2022-11-18T20:49:10.938Z,99638.19
2022-11-18T20:54:12.574Z,99634.56
2022-11-18T20:59:14.120Z,99649.34
2022-11-18T21:04:15.883Z,99650.75
2022-11-18T21:09:17.819Z,99654.22
2022-11-18T21:14:24.399Z,99652.41
2022-11-18T21:19:27.574Z,99657.47
2022-11-18T21:24:31.513Z,99652.03
2022-11-18T21:29:33.879Z,99641.78
2022-11-18T21:34:35.436Z,99658.56
2022-11-18T21:39:36.955Z,99655.50
2022-11-18T21:44:38.552Z,99659.19
2022-11-18T21:49:40.189Z,99679.53
2022-11-18T21:54:41.774Z,99683.13
2022-11-18T21:59:43.359Z,99682.72
2022-11-18T22:04:53.950Z,99674.47
2022-11-18T22:09:55.556Z,99672.69
2022-11-18T22:14:57.159Z,99690.50
2022-11-18T22:19:58.764Z,99688.59
2022-11-18T22:25:00.388Z,99689.75
2022-11-18T22:30:03.083Z,99693.44
2022-11-18T22:35:05.271Z,99712.44
2022-11-18T22:40:07.536Z,99709.78
2022-11-18T22:45:09.229Z,99712.00
2022-11-18T22:50:11.008Z,99720.22
2022-11-18T22:55:12.838Z,99708.84
2022-11-18T23:00:15.735Z,99720.22
2022-11-18T23:05:17.360Z,99716.09
2022-11-18T23:10:19.180Z,99732.47
2022-11-18T23:15:20.909Z,99736.16
2022-11-18T23:20:22.464Z,99744.47
2022-11-18T23:25:24.132Z,99754.28
2022-11-18T23:30:25.674Z,99760.03
2022-11-18T23:35:27.402Z,99771.47
2022-11-18T23:40:30.955Z,99764.13
2022-11-18T23:45:32.491Z,99773.28
2022-11-18T23:50:36.618Z,99765.22
2022-11-18T23:55:41.002Z,99764.81
